createdAt,value
2022-12-01T00:01:15.186Z,4.60
2022-12-01T00:03:43.132Z,4.60
2022-12-01T00:06:13.083Z,4.60
2022-12-01T00:09:02.632Z,5.20
2022-12-01T00:11:29.511Z,4.60
2022-12-01T00:13:57.435Z,5.80
2022-12-01T00:16:25.402Z,5.90
2022-12-01T00:18:54.099Z,5.50
2022-12-01T00:21:23.609Z,5.70
2022-12-01T00:23:54.493Z,5.90
2022-12-01T00:26:23.920Z,6.00
2022-12-01T00:28:52.772Z,5.60
2022-12-01T00:31:21.574Z,4.50
2022-12-01T00:33:49.454Z,5.90
2022-12-01T00:36:17.379Z,4.50
2022-12-01T00:38:45.338Z,5.80
2022-12-01T00:41:14.793Z,4.40
2022-12-01T00:43:42.729Z,4.50
2022-12-01T00:46:10.693Z,5.30
2022-12-01T00:48:38.650Z,6.40
2022-12-01T00:51:07.017Z,4.80
2022-12-01T00:53:34.932Z,4.40
2022-12-01T00:56:02.824Z,6.00
2022-12-01T00:58:32.060Z,6.10
2022-12-01T01:01:01.417Z,5.60
2022-12-01T01:03:29.963Z,4.40
2022-12-01T01:05:58.030Z,4.40
2022-12-01T01:08:25.949Z,5.10
2022-12-01T01:10:53.816Z,4.40
2022-12-01T01:13:21.666Z,4.40
2022-12-01T01:15:59.647Z,6.70
2022-12-01T01:18:27.531Z,4.40
2022-12-01T01:20:59.277Z,5.80
2022-12-01T01:23:27.694Z,5.50
2022-12-01T01:25:55.646Z,4.40
2022-12-01T01:28:23.556Z,4.70
2022-12-01T01:30:51.524Z,4.90
2022-12-01T01:33:20.813Z,4.40
2022-12-01T01:35:48.661Z,4.40
2022-12-01T01:38:16.719Z,4.30
2022-12-01T01:40:45.528Z,4.30
2022-12-01T01:43:16.961Z,5.50
2022-12-01T01:45:46.068Z,5.30
2022-12-01T01:48:15.397Z,5.70
2022-12-01T01:50:44.710Z,4.30
2022-12-01T01:53:14.676Z,4.30
2022-12-01T01:55:42.616Z,4.70
2022-12-01T01:58:11.946Z,4.10
2022-12-01T02:00:41.856Z,4.80
2022-12-01T02:03:12.812Z,5.80
2022-12-01T02:05:41.519Z,4.20
2022-12-01T02:08:12.328Z,5.50
2022-12-01T02:10:53.477Z,4.20
2022-12-01T02:13:29.685Z,4.70
2022-12-01T02:16:08.231Z,4.10
2022-12-01T02:18:45.720Z,4.20
2022-12-01T02:21:32.674Z,5.50
2022-12-01T02:24:37.796Z,4.30
2022-12-01T02:27:15.233Z,4.30
2022-12-01T02:30:15.610Z,5.00
2022-12-01T02:33:02.619Z,4.30
2022-12-01T02:35:37.152Z,4.20
2022-12-01T02:38:14.037Z,4.10
2022-12-01T02:40:45.696Z,6.10
2022-12-01T02:43:20.558Z,5.70
2022-12-01T02:45:52.621Z,4.30
2022-12-01T02:48:27.439Z,5.70
2022-12-01T02:50:58.118Z,5.10
2022-12-01T02:53:26.517Z,4.30
2022-12-01T02:55:56.155Z,4.30
2022-12-01T02:58:24.080Z,5.30
2022-12-01T03:01:17.984Z,4.10
2022-12-01T03:04:01.746Z,4.20
2022-12-01T03:06:41.381Z,5.30
2022-12-01T03:09:18.794Z,4.30
2022-12-01T03:11:57.363Z,5.50
2022-12-01T03:14:34.459Z,5.00
2022-12-01T03:17:08.578Z,5.90
2022-12-01T03:19:43.060Z,6.30
2022-12-01T03:22:14.724Z,4.10
2022-12-01T03:24:45.834Z,4.10
2022-12-01T03:27:14.754Z,4.70
2022-12-01T03:29:47.808Z,4.20
2022-12-01T03:32:21.069Z,5.20
2022-12-01T03:34:54.348Z,5.60
2022-12-01T03:37:27.303Z,3.70
2022-12-01T03:40:00.637Z,4.10
2022-12-01T03:42:33.161Z,4.80
2022-12-01T03:45:05.278Z,4.20
2022-12-01T03:47:35.681Z,4.10
2022-12-01T03:50:06.906Z,4.10
2022-12-01T03:52:44.205Z,4.10
2022-12-01T03:55:18.370Z,5.40
2022-12-01T03:57:52.988Z,5.50
2022-12-01T04:00:22.444Z,4.00
2022-12-01T04:02:56.393Z,4.00
2022-12-01T04:05:26.622Z,4.00
2022-12-01T04:07:54.875Z,3.50
2022-12-01T04:10:22.961Z,4.10
2022-12-01T04:12:50.032Z,4.00
2022-12-01T04:15:18.336Z,3.30
2022-12-01T04:17:46.242Z,4.00
2022-12-01T04:20:18.966Z,5.70
2022-12-01T04:22:48.550Z,4.00
2022-12-01T04:25:16.785Z,4.00
2022-12-01T04:27:44.663Z,3.90
2022-12-01T04:30:13.531Z,3.90
2022-12-01T04:32:43.002Z,4.00
2022-12-01T04:35:12.802Z,4.00
2022-12-01T04:37:40.993Z,3.90
2022-12-01T04:40:11.469Z,4.20
2022-12-01T04:42:39.317Z,4.00
2022-12-01T04:45:08.151Z,5.60
2022-12-01T04:47:36.071Z,4.00
2022-12-01T04:50:04.050Z,4.60
2022-12-01T04:52:35.186Z,3.90
2022-12-01T04:55:03.652Z,4.00
2022-12-01T04:57:32.890Z,3.90
2022-12-01T05:00:00.753Z,3.90
2022-12-01T05:02:28.717Z,3.90
2022-12-01T05:04:56.632Z,3.90
2022-12-01T05:07:24.563Z,5.10
2022-12-01T05:09:52.521Z,5.30
2022-12-01T05:12:20.754Z,3.90
2022-12-01T05:14:50.210Z,3.90
2022-12-01T05:17:18.123Z,3.90
2022-12-01T05:20:03.494Z,3.90
2022-12-01T05:23:03.366Z,4.10
2022-12-01T05:25:19.523Z,3.90
2022-12-01T05:27:47.414Z,4.00
2022-12-01T05:30:16.941Z,4.80
2022-12-01T05:32:44.807Z,3.90
2022-12-01T05:35:12.774Z,3.90
2022-12-01T05:37:40.671Z,3.90
2022-12-01T05:40:09.825Z,3.90
2022-12-01T05:42:37.733Z,3.90
2022-12-01T05:45:06.294Z,3.60
2022-12-01T05:47:35.556Z,3.90
2022-12-01T05:50:05.734Z,3.80
2022-12-01T05:52:35.213Z,5.00
2022-12-01T05:55:03.540Z,3.80
2022-12-01T05:57:32.045Z,4.60
2022-12-01T06:00:00.334Z,3.90
2022-12-01T06:02:28.206Z,3.90
2022-12-01T06:04:57.474Z,3.90
2022-12-01T06:07:26.027Z,3.80
2022-12-01T06:09:54.416Z,3.90
2022-12-01T06:12:22.401Z,4.70
2022-12-01T06:14:50.270Z,4.70
2022-12-01T06:17:18.216Z,3.80
2022-12-01T06:19:48.171Z,3.40
2022-12-01T06:22:17.658Z,3.90
2022-12-01T06:24:45.572Z,3.90
2022-12-01T06:27:13.581Z,3.90
2022-12-01T06:29:47.816Z,5.60
2022-12-01T06:32:15.970Z,3.80
2022-12-01T06:34:43.943Z,4.60
2022-12-01T06:37:11.855Z,3.80
2022-12-01T06:39:41.119Z,3.80
2022-12-01T06:42:09.000Z,4.80
2022-12-01T06:44:36.843Z,3.80
2022-12-01T06:47:04.917Z,3.70
2022-12-01T06:49:32.804Z,4.80
2022-12-01T06:52:01.140Z,3.70
2022-12-01T06:54:29.176Z,3.90
2022-12-01T06:56:58.530Z,3.80
2022-12-01T06:59:27.022Z,6.00
2022-12-01T07:01:56.334Z,4.90
2022-12-01T07:04:24.345Z,3.80
2022-12-01T07:06:52.262Z,3.70
2022-12-01T07:09:20.275Z,3.70
2022-12-01T07:11:48.171Z,5.70
2022-12-01T07:14:23.540Z,3.70
2022-12-01T07:16:51.568Z,3.70
2022-12-01T07:19:19.801Z,5.40
2022-12-01T07:21:47.823Z,3.70
2022-12-01T07:24:15.754Z,3.60
2022-12-01T07:26:44.055Z,5.30
2022-12-01T07:29:12.293Z,3.50
2022-12-01T07:31:41.508Z,3.60
2022-12-01T07:34:12.615Z,3.60
2022-12-01T07:36:40.660Z,3.60
2022-12-01T07:39:09.369Z,5.00
2022-12-01T07:41:37.413Z,3.60
2022-12-01T07:44:05.447Z,3.60
2022-12-01T07:46:33.514Z,3.60
2022-12-01T07:49:06.100Z,5.90
2022-12-01T07:51:34.354Z,3.60
2022-12-01T07:54:04.280Z,3.50
2022-12-01T07:56:33.979Z,3.50
2022-12-01T07:59:01.938Z,3.60
2022-12-01T08:01:29.992Z,3.50
2022-12-01T08:03:59.890Z,3.50
2022-12-01T08:06:29.172Z,3.50
2022-12-01T08:08:57.110Z,3.50
2022-12-01T08:11:29.185Z,5.40
2022-12-01T08:13:57.474Z,3.40
2022-12-01T08:16:26.032Z,5.10
2022-12-01T08:18:54.309Z,3.70
2022-12-01T08:21:24.428Z,3.40
2022-12-01T08:23:56.503Z,3.30
2022-12-01T08:26:25.536Z,3.30
2022-12-01T08:28:53.462Z,3.20
2022-12-01T08:31:23.436Z,3.20
2022-12-01T08:33:52.197Z,3.20
2022-12-01T08:36:21.469Z,3.20
2022-12-01T08:38:51.450Z,3.90
2022-12-01T08:41:21.390Z,3.30
2022-12-01T08:43:58.086Z,3.10
2022-12-01T08:46:27.856Z,5.30
2022-12-01T08:48:57.978Z,3.30
2022-12-01T08:51:27.114Z,3.30
2022-12-01T08:53:56.915Z,3.30
2022-12-01T08:56:28.616Z,3.30
2022-12-01T08:58:56.707Z,3.90
2022-12-01T09:01:25.653Z,3.40
2022-12-01T09:04:05.505Z,3.40
2022-12-01T09:06:36.033Z,3.40
2022-12-01T09:09:04.014Z,3.50
2022-12-01T09:11:33.716Z,3.50
2022-12-01T09:14:01.679Z,3.50
2022-12-01T09:16:29.729Z,3.50
2022-12-01T09:18:57.808Z,4.30
2022-12-01T09:21:27.783Z,3.70
2022-12-01T09:23:55.774Z,3.80
2022-12-01T09:26:23.878Z,5.80
2022-12-01T09:28:55.941Z,4.60
2022-12-01T09:31:24.416Z,4.90
2022-12-01T09:33:56.273Z,3.70
2022-12-01T09:36:24.205Z,3.70
2022-12-01T09:38:52.257Z,5.30
2022-12-01T09:41:22.566Z,3.70
2022-12-01T09:44:02.268Z,3.80
2022-12-01T09:46:36.019Z,4.10
2022-12-01T09:49:05.472Z,3.90
2022-12-01T09:51:36.284Z,5.20
2022-12-01T09:54:04.844Z,3.80
2022-12-01T09:56:40.818Z,3.90
2022-12-01T09:59:20.494Z,5.70
2022-12-01T10:02:00.249Z,4.00
2022-12-01T10:04:32.493Z,5.00
2022-12-01T10:07:04.042Z,4.10
2022-12-01T10:09:39.090Z,4.00
2022-12-01T10:12:14.772Z,5.40
2022-12-01T10:14:46.043Z,4.40
2022-12-01T10:17:22.694Z,6.10
2022-12-01T10:19:55.756Z,6.00
2022-12-01T10:22:45.089Z,5.80
2022-12-01T10:25:21.713Z,5.50
2022-12-01T10:28:06.529Z,4.40
2022-12-01T10:30:39.687Z,6.00
2022-12-01T10:33:16.989Z,6.00
2022-12-01T10:35:44.879Z,5.40
2022-12-01T10:38:22.862Z,4.30
2022-12-01T10:40:51.598Z,5.80
2022-12-01T10:43:19.487Z,4.50
2022-12-01T10:45:49.070Z,5.30
2022-12-01T10:48:18.498Z,5.50
2022-12-01T10:50:48.310Z,5.80
2022-12-01T10:53:30.526Z,5.20
2022-12-01T10:56:04.769Z,4.60
2022-12-01T10:58:33.722Z,5.00
2022-12-01T11:01:06.827Z,5.60
2022-12-01T11:03:36.790Z,4.50
2022-12-01T11:06:08.261Z,5.60
2022-12-01T11:08:41.075Z,4.50
2022-12-01T11:11:26.061Z,6.20
2022-12-01T11:13:55.167Z,4.30
2022-12-01T11:16:39.550Z,5.40
2022-12-01T11:19:27.501Z,4.50
2022-12-01T11:21:57.826Z,4.50
2022-12-01T11:24:42.878Z,4.40
2022-12-01T11:27:18.372Z,4.50
2022-12-01T11:29:48.908Z,4.50
2022-12-01T11:32:25.026Z,5.90
2022-12-01T11:34:57.717Z,4.60
2022-12-01T11:37:29.870Z,5.40
2022-12-01T11:40:10.165Z,6.00
2022-12-01T11:42:40.203Z,4.60
2022-12-01T11:45:22.969Z,5.80
2022-12-01T11:48:05.381Z,4.70
2022-12-01T11:50:35.529Z,4.60
2022-12-01T11:53:03.838Z,5.50
2022-12-01T11:55:32.793Z,4.70
2022-12-01T11:58:03.392Z,5.70
2022-12-01T12:00:46.805Z,5.20
2022-12-01T12:03:30.759Z,4.70
2022-12-01T12:09:23.924Z,4.60
2022-12-01T12:12:00.795Z,4.60
2022-12-01T12:14:46.420Z,6.20
2022-12-01T12:17:27.831Z,4.40
2022-12-01T12:20:28.549Z,4.50
2022-12-01T12:23:10.484Z,4.40
2022-12-01T12:25:52.195Z,5.30
2022-12-01T12:28:33.597Z,5.40
2022-12-01T12:31:11.349Z,5.60
2022-12-01T12:34:00.543Z,4.80
2022-12-01T12:36:40.092Z,4.40
2022-12-01T12:39:21.594Z,4.30
2022-12-01T12:41:54.291Z,5.70
2022-12-01T12:44:38.960Z,4.30
2022-12-01T12:47:18.639Z,4.30
2022-12-01T12:49:51.780Z,5.90
2022-12-01T12:52:26.710Z,5.90
2022-12-01T12:54:58.629Z,4.00
2022-12-01T12:57:32.006Z,5.30
2022-12-01T13:00:05.426Z,6.00
2022-12-01T13:02:40.282Z,4.10
2022-12-01T13:05:14.441Z,5.60
2022-12-01T13:07:49.501Z,5.40
2022-12-01T13:10:27.531Z,4.00
2022-12-01T13:13:01.626Z,5.20
2022-12-01T13:15:31.655Z,4.60
2022-12-01T13:18:05.088Z,3.90
2022-12-01T13:20:37.622Z,3.90
2022-12-01T13:23:09.917Z,3.90
2022-12-01T13:25:40.552Z,3.90
2022-12-01T13:28:18.369Z,3.80
2022-12-01T13:31:02.569Z,4.80
2022-12-01T13:33:31.867Z,3.80
2022-12-01T13:36:44.685Z,3.80
2022-12-01T13:38:59.495Z,3.70
2022-12-01T13:41:30.383Z,3.60
2022-12-01T13:44:02.341Z,3.60
2022-12-01T13:46:34.349Z,3.60
2022-12-01T13:49:04.333Z,5.30
2022-12-01T13:52:05.430Z,3.50
2022-12-01T13:54:37.367Z,3.50
2022-12-01T13:57:12.051Z,3.50
2022-12-01T14:00:06.649Z,3.40
2022-12-01T14:02:38.185Z,3.40
2022-12-01T14:05:43.468Z,3.80
2022-12-01T14:08:22.683Z,3.40
2022-12-01T14:10:58.008Z,3.40
2022-12-01T14:13:27.242Z,3.40
2022-12-01T14:15:57.546Z,3.40
2022-12-01T14:18:35.090Z,4.10
2022-12-01T14:21:05.518Z,3.30
2022-12-01T14:23:36.291Z,3.20
2022-12-01T14:26:16.743Z,3.20
2022-12-01T14:29:21.138Z,3.20
2022-12-01T14:32:24.829Z,3.20
2022-12-01T14:35:09.446Z,3.10
2022-12-01T14:37:43.630Z,3.10
2022-12-01T14:40:18.289Z,3.00
2022-12-01T14:43:09.321Z,3.10
2022-12-01T14:45:42.528Z,4.10
2022-12-01T14:48:13.785Z,3.10
2022-12-01T14:50:49.006Z,3.00
2022-12-01T14:53:22.593Z,3.00
2022-12-01T14:55:56.147Z,3.00
2022-12-01T14:58:28.346Z,4.30
2022-12-01T15:01:01.726Z,2.90
2022-12-01T15:03:33.906Z,4.30
2022-12-01T15:06:01.922Z,2.80
2022-12-01T15:11:22.859Z,2.80
2022-12-01T15:13:53.360Z,2.70
2022-12-01T15:16:23.571Z,2.70
2022-12-01T15:18:52.278Z,2.60
2022-12-01T15:21:23.212Z,2.60
2022-12-01T15:23:56.376Z,2.60
2022-12-01T15:26:26.397Z,2.60
2022-12-01T15:29:14.189Z,2.60
2022-12-01T15:31:43.731Z,2.60
2022-12-01T15:34:16.244Z,2.60
2022-12-01T15:36:44.798Z,2.50
2022-12-01T15:39:16.405Z,2.50
2022-12-01T15:41:46.559Z,2.30
2022-12-01T15:44:22.544Z,2.60
2022-12-01T15:46:50.494Z,2.50
2022-12-01T15:49:20.284Z,2.50
2022-12-01T15:51:50.007Z,4.20
2022-12-01T15:54:21.515Z,2.60
2022-12-01T15:56:54.121Z,3.30
2022-12-01T15:59:37.606Z,4.60
2022-12-01T16:02:28.044Z,2.50
2022-12-01T16:05:05.133Z,2.60
2022-12-01T16:08:11.059Z,2.60
2022-12-01T16:10:31.789Z,2.60
2022-12-01T16:13:41.583Z,2.60
2022-12-01T16:16:35.623Z,2.60
2022-12-01T16:19:06.603Z,2.60
2022-12-01T16:21:42.917Z,2.60
2022-12-01T16:24:16.027Z,2.60
2022-12-01T16:26:49.903Z,2.70
2022-12-01T16:29:20.893Z,2.70
2022-12-01T16:32:19.740Z,2.70
2022-12-01T16:34:56.769Z,2.70
2022-12-01T16:37:24.865Z,2.70
2022-12-01T16:39:52.813Z,2.70
2022-12-01T16:42:22.204Z,2.70
2022-12-01T16:44:50.914Z,2.60
2022-12-01T16:47:22.849Z,2.60
2022-12-01T16:49:51.138Z,2.50
2022-12-01T16:52:43.567Z,2.50
2022-12-01T16:55:33.137Z,3.90
2022-12-01T16:58:01.037Z,2.50
2022-12-01T17:00:29.646Z,2.50
2022-12-01T17:02:59.264Z,2.50
2022-12-01T17:05:27.340Z,2.50
2022-12-01T17:07:55.574Z,2.40
2022-12-01T17:10:24.206Z,2.50
2022-12-01T17:12:52.826Z,2.50
2022-12-01T17:15:21.135Z,2.40
2022-12-01T17:17:49.487Z,2.50
2022-12-01T17:20:18.915Z,2.40
2022-12-01T17:22:47.608Z,2.40
2022-12-01T17:25:15.598Z,3.10
2022-12-01T17:27:44.008Z,2.40
2022-12-01T17:30:13.107Z,2.40
2022-12-01T17:32:40.985Z,2.40
2022-12-01T17:35:10.077Z,2.40
2022-12-01T17:37:39.463Z,2.50
2022-12-01T17:40:10.910Z,2.40
2022-12-01T17:42:38.803Z,2.50
2022-12-01T17:45:07.734Z,2.40
2022-12-01T17:47:45.483Z,2.50
2022-12-01T17:50:13.461Z,2.30
2022-12-01T17:52:42.730Z,2.50
2022-12-01T17:55:11.106Z,4.10
2022-12-01T17:57:39.018Z,2.30
2022-12-01T18:00:08.609Z,2.40
2022-12-01T18:02:36.764Z,2.50
2022-12-01T18:05:05.320Z,2.40
2022-12-01T18:07:33.358Z,2.40
2022-12-01T18:10:02.696Z,2.50
2022-12-01T18:12:30.618Z,4.30
2022-12-01T18:14:58.646Z,2.40
2022-12-01T18:17:27.701Z,2.30
2022-12-01T18:19:55.637Z,2.30
2022-12-01T18:22:23.560Z,3.40
2022-12-01T18:24:51.881Z,2.30
2022-12-01T18:27:21.380Z,2.60
2022-12-01T18:29:49.431Z,4.00
2022-12-01T18:32:17.659Z,2.30
2022-12-01T18:34:45.666Z,4.50
2022-12-01T18:37:13.564Z,2.30
2022-12-01T18:39:41.462Z,2.20
2022-12-01T18:42:09.367Z,2.30
2022-12-01T18:44:39.134Z,2.30
2022-12-01T18:47:07.399Z,2.20
2022-12-01T18:49:35.442Z,2.20
2022-12-01T18:52:04.611Z,2.20
2022-12-01T18:54:32.515Z,2.30
2022-12-01T18:57:00.474Z,2.40
2022-12-01T18:59:28.797Z,2.40
2022-12-01T19:01:58.113Z,2.40
2022-12-01T19:04:25.960Z,2.40
2022-12-01T19:06:54.852Z,2.40
2022-12-01T19:09:22.950Z,2.40
2022-12-01T19:11:58.698Z,2.30
2022-12-01T19:14:27.832Z,2.30
2022-12-01T19:16:57.459Z,2.30
2022-12-01T19:19:26.255Z,2.30
2022-12-01T19:21:54.477Z,2.30
2022-12-01T19:24:22.527Z,4.50
2022-12-01T19:26:50.455Z,2.70
2022-12-01T19:29:18.419Z,2.30
2022-12-01T19:31:46.398Z,2.40
2022-12-01T19:34:15.722Z,2.30
2022-12-01T19:36:43.610Z,2.40
2022-12-01T19:39:11.820Z,2.40
2022-12-01T19:41:39.750Z,2.30
2022-12-01T19:44:07.694Z,3.30
2022-12-01T19:46:35.614Z,2.30
2022-12-01T19:49:05.545Z,2.30
2022-12-01T19:51:36.837Z,2.30
2022-12-01T19:54:06.407Z,2.30
2022-12-01T19:56:34.664Z,2.30
2022-12-01T19:59:02.637Z,2.10
2022-12-01T20:01:30.588Z,2.20
2022-12-01T20:03:58.535Z,3.50
2022-12-01T20:06:28.874Z,2.20
2022-12-01T20:09:00.159Z,2.20
2022-12-01T20:11:32.615Z,3.20
2022-12-01T20:14:00.961Z,2.10
2022-12-01T20:16:30.415Z,2.10
2022-12-01T20:19:01.528Z,2.00
2022-12-01T20:21:31.343Z,2.00
2022-12-01T20:24:02.625Z,2.00
2022-12-01T20:26:34.347Z,2.00
2022-12-01T20:29:04.780Z,2.00
2022-12-01T20:31:33.739Z,1.60
2022-12-01T20:34:04.780Z,2.00
2022-12-01T20:36:32.784Z,2.00
2022-12-01T20:39:02.208Z,2.00
2022-12-01T20:41:30.106Z,2.10
2022-12-01T20:44:01.218Z,3.50
2022-12-01T20:46:33.500Z,2.10
2022-12-01T20:49:01.405Z,1.80
2022-12-01T20:51:32.996Z,2.00
2022-12-01T20:56:50.649Z,2.00
2022-12-01T20:59:18.965Z,2.00
2022-12-01T21:01:46.849Z,1.80
2022-12-01T21:04:14.758Z,2.10
2022-12-01T21:06:42.768Z,2.10
2022-12-01T21:09:13.072Z,2.10
2022-12-01T21:12:03.897Z,2.20
2022-12-01T21:14:37.805Z,2.10
2022-12-01T21:17:15.780Z,2.20
2022-12-01T21:19:48.443Z,2.20
2022-12-01T21:22:16.408Z,2.10
2022-12-01T21:24:50.798Z,2.10
2022-12-01T21:27:19.221Z,2.10
2022-12-01T21:29:49.083Z,2.10
2022-12-01T21:32:19.274Z,2.00
2022-12-01T21:34:48.192Z,2.00
2022-12-01T21:37:22.654Z,2.10
2022-12-01T21:39:53.492Z,2.00
2022-12-01T21:42:23.891Z,2.00
2022-12-01T21:44:52.126Z,2.00
2022-12-01T21:47:22.457Z,2.00
2022-12-01T21:49:54.079Z,2.00
2022-12-01T21:52:24.982Z,2.10
2022-12-01T21:54:54.562Z,2.10
2022-12-01T21:57:42.873Z,2.00
2022-12-01T22:00:27.727Z,2.10
2022-12-01T22:03:19.962Z,2.10
2022-12-01T22:06:13.659Z,2.10
2022-12-01T22:08:41.083Z,1.90
2022-12-01T22:11:14.181Z,2.90
2022-12-01T22:13:44.666Z,2.10
2022-12-01T22:16:16.554Z,1.80
2022-12-01T22:18:48.006Z,3.80
2022-12-01T22:21:36.775Z,2.10
2022-12-01T22:24:23.532Z,2.10
2022-12-01T22:26:59.719Z,2.00
2022-12-01T22:29:30.138Z,2.10
2022-12-01T22:32:33.405Z,2.10
2022-12-01T22:35:36.092Z,2.10
2022-12-01T22:38:35.802Z,2.10
2022-12-01T22:41:06.435Z,2.10
2022-12-01T22:43:46.344Z,2.00
2022-12-01T22:46:33.071Z,2.10
2022-12-01T22:49:09.530Z,2.10
2022-12-01T22:51:42.095Z,2.00
2022-12-01T22:54:33.037Z,2.40
2022-12-01T22:57:12.363Z,2.00
2022-12-01T22:59:43.721Z,2.00
2022-12-01T23:02:21.200Z,1.90
2022-12-01T23:04:57.797Z,3.80
2022-12-01T23:07:34.439Z,2.90
2022-12-01T23:10:15.959Z,2.00
2022-12-01T23:12:44.595Z,1.90
2022-12-01T23:15:26.565Z,1.90
2022-12-01T23:17:54.834Z,2.60
2022-12-01T23:20:29.910Z,1.90
2022-12-01T23:23:00.256Z,1.90
2022-12-01T23:25:28.738Z,1.90
2022-12-01T23:28:00.142Z,1.90
2022-12-01T23:30:29.416Z,2.00
2022-12-01T23:33:11.222Z,2.00
2022-12-01T23:35:42.561Z,2.00
2022-12-01T23:38:16.741Z,1.90
2022-12-01T23:40:44.888Z,1.90
2022-12-01T23:43:19.379Z,3.00
2022-12-01T23:45:50.814Z,1.90
2022-12-01T23:48:22.470Z,1.90
2022-12-01T23:50:53.268Z,1.90
2022-12-01T23:53:26.591Z,1.90
2022-12-01T23:55:54.851Z,1.90
2022-12-01T23:58:22.759Z,1.90
